sensor_id;sensor_type;location;lat;lon;timestamp;P1;durP1;ratioP1;P2;durP2;ratioP2
26946;SDS011;14501;52.282;10.560;2022-12-07T00:01:45;34.63;;;18.77;;
26946;SDS011;14501;52.282;10.560;2022-12-07T00:04:12;35.92;;;19.10;;
26946;SDS011;14501;52.282;10.560;2022-12-07T00:06:40;38.25;;;19.15;;
26946;SDS011;14501;52.282;10.560;2022-12-07T00:09:14;37.28;;;19.98;;
26946;SDS011;14501;52.282;10.560;2022-12-07T00:11:41;33.78;;;18.05;;
26946;SDS011;14501;52.282;10.560;2022-12-07T00:14:07;36.42;;;19.10;;
26946;SDS011;14501;52.282;10.560;2022-12-07T00:16:36;36.15;;;19.13;;
26946;SDS011;14501;52.282;10.560;2022-12-07T00:19:02;32.45;;;18.45;;
26946;SDS011;14501;52.282;10.560;2022-12-07T00:21:30;34.50;;;18.02;;
26946;SDS011;14501;52.282;10.560;2022-12-07T00:23:58;38.90;;;18.98;;
26946;SDS011;14501;52.282;10.560;2022-12-07T00:26:25;33.13;;;18.52;;
26946;SDS011;14501;52.282;10.560;2022-12-07T00:28:56;37.38;;;19.23;;
26946;SDS011;14501;52.282;10.560;2022-12-07T00:31:24;33.08;;;18.05;;
26946;SDS011;14501;52.282;10.560;2022-12-07T00:33:51;32.78;;;18.85;;
26946;SDS011;14501;52.282;10.560;2022-12-07T00:36:18;32.47;;;18.58;;
26946;SDS011;14501;52.282;10.560;2022-12-07T00:38:45;33.25;;;18.90;;
26946;SDS011;14501;52.282;10.560;2022-12-07T00:43:37;33.97;;;18.27;;
26946;SDS011;14501;52.282;10.560;2022-12-07T00:46:03;32.78;;;18.50;;
26946;SDS011;14501;52.282;10.560;2022-12-07T00:48:29;31.90;;;18.13;;
26946;SDS011;14501;52.282;10.560;2022-12-07T00:50:55;34.03;;;18.20;;
26946;SDS011;14501;52.282;10.560;2022-12-07T00:53:21;38.05;;;20.13;;
26946;SDS011;14501;52.282;10.560;2022-12-07T00:55:47;36.13;;;18.80;;
26946;SDS011;14501;52.282;10.560;2022-12-07T00:58:13;42.97;;;19.63;;
26946;SDS011;14501;52.282;10.560;2022-12-07T01:00:39;36.80;;;18.88;;
26946;SDS011;14501;52.282;10.560;2022-12-07T01:03:07;35.67;;;18.95;;
26946;SDS011;14501;52.282;10.560;2022-12-07T01:05:35;36.75;;;18.80;;
26946;SDS011;14501;52.282;10.560;2022-12-07T01:08:00;39.88;;;19.10;;
26946;SDS011;14501;52.282;10.560;2022-12-07T01:10:26;35.03;;;19.33;;
26946;SDS011;14501;52.282;10.560;2022-12-07T01:12:52;36.30;;;18.98;;
26946;SDS011;14501;52.282;10.560;2022-12-07T01:15:18;41.47;;;19.95;;
26946;SDS011;14501;52.282;10.560;2022-12-07T01:17:44;35.28;;;19.45;;
26946;SDS011;14501;52.282;10.560;2022-12-07T01:20:09;36.28;;;19.90;;
26946;SDS011;14501;52.282;10.560;2022-12-07T01:22:37;43.13;;;21.70;;
26946;SDS011;14501;52.282;10.560;2022-12-07T01:25:04;37.78;;;19.20;;
26946;SDS011;14501;52.282;10.560;2022-12-07T01:27:30;41.97;;;21.85;;
26946;SDS011;14501;52.282;10.560;2022-12-07T01:29:57;38.92;;;20.02;;
26946;SDS011;14501;52.282;10.560;2022-12-07T01:32:22;36.92;;;19.83;;
26946;SDS011;14501;52.282;10.560;2022-12-07T01:34:48;41.45;;;21.15;;
26946;SDS011;14501;52.282;10.560;2022-12-07T01:37:13;38.88;;;20.45;;
26946;SDS011;14501;52.282;10.560;2022-12-07T01:39:39;40.88;;;21.95;;
26946;SDS011;14501;52.282;10.560;2022-12-07T01:42:09;40.75;;;21.38;;
26946;SDS011;14501;52.282;10.560;2022-12-07T01:45:14;38.40;;;20.83;;
26946;SDS011;14501;52.282;10.560;2022-12-07T01:47:52;38.90;;;20.58;;
26946;SDS011;14501;52.282;10.560;2022-12-07T01:50:20;39.72;;;21.08;;
26946;SDS011;14501;52.282;10.560;2022-12-07T01:52:49;43.10;;;21.83;;
26946;SDS011;14501;52.282;10.560;2022-12-07T01:55:16;42.90;;;22.58;;
26946;SDS011;14501;52.282;10.560;2022-12-07T01:57:43;42.10;;;21.60;;
26946;SDS011;14501;52.282;10.560;2022-12-07T02:00:13;39.28;;;21.25;;
26946;SDS011;14501;52.282;10.560;2022-12-07T02:02:44;48.33;;;23.02;;
26946;SDS011;14501;52.282;10.560;2022-12-07T02:05:24;46.92;;;21.80;;
26946;SDS011;14501;52.282;10.560;2022-12-07T02:07:50;44.65;;;21.80;;
26946;SDS011;14501;52.282;10.560;2022-12-07T02:12:48;43.40;;;21.75;;
26946;SDS011;14501;52.282;10.560;2022-12-07T02:15:18;47.17;;;23.00;;
26946;SDS011;14501;52.282;10.560;2022-12-07T02:21:30;47.85;;;23.02;;
26946;SDS011;14501;52.282;10.560;2022-12-07T02:29:18;41.58;;;21.60;;
26946;SDS011;14501;52.282;10.560;2022-12-07T02:32:13;47.95;;;23.75;;
26946;SDS011;14501;52.282;10.560;2022-12-07T02:34:58;45.20;;;22.70;;
26946;SDS011;14501;52.282;10.560;2022-12-07T02:38:11;44.85;;;21.45;;
26946;SDS011;14501;52.282;10.560;2022-12-07T02:43:08;45.05;;;22.40;;
26946;SDS011;14501;52.282;10.560;2022-12-07T02:45:46;43.85;;;22.42;;
26946;SDS011;14501;52.282;10.560;2022-12-07T02:48:14;40.15;;;21.33;;
26946;SDS011;14501;52.282;10.560;2022-12-07T02:50:52;43.78;;;22.27;;
26946;SDS011;14501;52.282;10.560;2022-12-07T03:12:25;39.35;;;21.58;;
26946;SDS011;14501;52.282;10.560;2022-12-07T03:14:59;38.30;;;21.08;;
26946;SDS011;14501;52.282;10.560;2022-12-07T03:17:35;40.80;;;21.77;;
26946;SDS011;14501;52.282;10.560;2022-12-07T03:20:05;40.22;;;20.70;;
26946;SDS011;14501;52.282;10.560;2022-12-07T03:22:34;39.55;;;22.15;;
26946;SDS011;14501;52.282;10.560;2022-12-07T03:25:04;43.50;;;22.17;;
26946;SDS011;14501;52.282;10.560;2022-12-07T03:28:16;40.92;;;22.42;;
26946;SDS011;14501;52.282;10.560;2022-12-07T03:30:24;42.00;;;22.02;;
26946;SDS011;14501;52.282;10.560;2022-12-07T03:33:00;41.42;;;22.08;;
26946;SDS011;14501;52.282;10.560;2022-12-07T03:35:32;41.63;;;21.73;;
26946;SDS011;14501;52.282;10.560;2022-12-07T03:38:05;40.95;;;22.73;;
26946;SDS011;14501;52.282;10.560;2022-12-07T03:40:47;42.55;;;22.55;;
26946;SDS011;14501;52.282;10.560;2022-12-07T03:43:20;37.17;;;21.90;;
26946;SDS011;14501;52.282;10.560;2022-12-07T03:48:49;39.95;;;21.70;;
26946;SDS011;14501;52.282;10.560;2022-12-07T03:51:18;36.47;;;20.63;;
26946;SDS011;14501;52.282;10.560;2022-12-07T03:53:50;37.97;;;20.63;;
26946;SDS011;14501;52.282;10.560;2022-12-07T03:58:47;37.90;;;19.75;;
26946;SDS011;14501;52.282;10.560;2022-12-07T04:01:14;34.83;;;20.08;;
26946;SDS011;14501;52.282;10.560;2022-12-07T04:03:39;37.58;;;20.85;;
26946;SDS011;14501;52.282;10.560;2022-12-07T04:06:05;35.08;;;19.75;;
26946;SDS011;14501;52.282;10.560;2022-12-07T04:08:31;36.67;;;20.63;;
26946;SDS011;14501;52.282;10.560;2022-12-07T04:10:57;40.63;;;20.58;;
26946;SDS011;14501;52.282;10.560;2022-12-07T04:13:22;35.17;;;19.20;;
26946;SDS011;14501;52.282;10.560;2022-12-07T04:15:48;38.72;;;19.60;;
26946;SDS011;14501;52.282;10.560;2022-12-07T04:18:13;35.63;;;19.50;;
26946;SDS011;14501;52.282;10.560;2022-12-07T04:20:39;35.80;;;19.25;;
26946;SDS011;14501;52.282;10.560;2022-12-07T04:23:04;32.42;;;18.85;;
26946;SDS011;14501;52.282;10.560;2022-12-07T04:25:30;33.53;;;18.83;;
26946;SDS011;14501;52.282;10.560;2022-12-07T04:27:56;33.33;;;18.15;;
26946;SDS011;14501;52.282;10.560;2022-12-07T04:30:21;33.75;;;18.55;;
26946;SDS011;14501;52.282;10.560;2022-12-07T04:32:47;43.10;;;18.35;;
26946;SDS011;14501;52.282;10.560;2022-12-07T04:35:12;35.38;;;17.67;;
26946;SDS011;14501;52.282;10.560;2022-12-07T04:37:38;29.25;;;17.58;;
26946;SDS011;14501;52.282;10.560;2022-12-07T04:40:07;29.08;;;17.52;;
26946;SDS011;14501;52.282;10.560;2022-12-07T04:42:35;29.95;;;16.48;;
26946;SDS011;14501;52.282;10.560;2022-12-07T04:45:00;32.00;;;16.50;;
26946;SDS011;14501;52.282;10.560;2022-12-07T04:47:26;29.17;;;16.67;;
26946;SDS011;14501;52.282;10.560;2022-12-07T04:49:51;28.73;;;16.35;;
26946;SDS011;14501;52.282;10.560;2022-12-07T04:52:17;29.27;;;15.60;;
26946;SDS011;14501;52.282;10.560;2022-12-07T04:54:42;28.77;;;15.40;;
26946;SDS011;14501;52.282;10.560;2022-12-07T04:57:08;33.72;;;16.52;;
26946;SDS011;14501;52.282;10.560;2022-12-07T04:59:34;27.70;;;15.00;;
26946;SDS011;14501;52.282;10.560;2022-12-07T05:01:59;27.50;;;15.55;;
26946;SDS011;14501;52.282;10.560;2022-12-07T05:04:25;27.20;;;14.70;;
26946;SDS011;14501;52.282;10.560;2022-12-07T05:06:50;25.52;;;13.70;;
26946;SDS011;14501;52.282;10.560;2022-12-07T05:09:16;25.77;;;14.45;;
26946;SDS011;14501;52.282;10.560;2022-12-07T05:11:42;29.88;;;15.27;;
26946;SDS011;14501;52.282;10.560;2022-12-07T05:16:38;27.25;;;14.18;;
26946;SDS011;14501;52.282;10.560;2022-12-07T05:19:05;23.60;;;12.65;;
26946;SDS011;14501;52.282;10.560;2022-12-07T05:21:34;25.73;;;13.90;;
26946;SDS011;14501;52.282;10.560;2022-12-07T05:24:00;25.65;;;12.57;;
26946;SDS011;14501;52.282;10.560;2022-12-07T05:26:26;25.30;;;12.90;;
26946;SDS011;14501;52.282;10.560;2022-12-07T05:28:52;25.02;;;13.55;;
26946;SDS011;14501;52.282;10.560;2022-12-07T05:31:19;25.17;;;12.75;;
26946;SDS011;14501;52.282;10.560;2022-12-07T05:33:45;25.92;;;11.93;;
26946;SDS011;14501;52.282;10.560;2022-12-07T05:36:10;26.40;;;12.98;;
26946;SDS011;14501;52.282;10.560;2022-12-07T05:38:36;24.38;;;12.68;;
26946;SDS011;14501;52.282;10.560;2022-12-07T05:41:02;24.88;;;13.20;;
26946;SDS011;14501;52.282;10.560;2022-12-07T05:43:28;29.23;;;13.73;;
26946;SDS011;14501;52.282;10.560;2022-12-07T05:45:54;29.55;;;13.90;;
26946;SDS011;14501;52.282;10.560;2022-12-07T05:48:19;26.25;;;14.20;;
26946;SDS011;14501;52.282;10.560;2022-12-07T05:50:47;27.70;;;12.75;;
26946;SDS011;14501;52.282;10.560;2022-12-07T05:53:13;25.77;;;13.60;;
26946;SDS011;14501;52.282;10.560;2022-12-07T05:55:39;28.10;;;13.82;;
26946;SDS011;14501;52.282;10.560;2022-12-07T05:58:05;25.52;;;13.35;;
26946;SDS011;14501;52.282;10.560;2022-12-07T06:00:49;34.78;;;14.10;;
26946;SDS011;14501;52.282;10.560;2022-12-07T06:03:14;27.23;;;13.63;;
26946;SDS011;14501;52.282;10.560;2022-12-07T06:05:40;29.63;;;13.48;;
26946;SDS011;14501;52.282;10.560;2022-12-07T06:08:06;28.33;;;14.10;;
26946;SDS011;14501;52.282;10.560;2022-12-07T06:10:32;29.80;;;13.68;;
26946;SDS011;14501;52.282;10.560;2022-12-07T06:12:58;30.27;;;14.63;;
26946;SDS011;14501;52.282;10.560;2022-12-07T06:15:24;27.65;;;13.80;;
26946;SDS011;14501;52.282;10.560;2022-12-07T06:17:49;22.65;;;12.82;;
26946;SDS011;14501;52.282;10.560;2022-12-07T06:20:15;30.63;;;13.10;;
26946;SDS011;14501;52.282;10.560;2022-12-07T06:22:40;27.83;;;11.30;;
26946;SDS011;14501;52.282;10.560;2022-12-07T06:25:06;24.83;;;12.15;;
26946;SDS011;14501;52.282;10.560;2022-12-07T06:27:32;15.50;;;8.40;;
26946;SDS011;14501;52.282;10.560;2022-12-07T06:29:58;15.45;;;9.27;;
26946;SDS011;14501;52.282;10.560;2022-12-07T06:32:24;16.48;;;7.57;;
26946;SDS011;14501;52.282;10.560;2022-12-07T06:34:49;11.65;;;5.53;;
26946;SDS011;14501;52.282;10.560;2022-12-07T06:37:15;7.90;;;3.80;;
26946;SDS011;14501;52.282;10.560;2022-12-07T06:39:40;9.27;;;3.40;;
26946;SDS011;14501;52.282;10.560;2022-12-07T06:42:06;3.97;;;2.58;;
26946;SDS011;14501;52.282;10.560;2022-12-07T06:44:31;6.03;;;2.63;;
26946;SDS011;14501;52.282;10.560;2022-12-07T06:46:57;5.47;;;4.03;;
26946;SDS011;14501;52.282;10.560;2022-12-07T06:49:23;10.57;;;4.18;;
26946;SDS011;14501;52.282;10.560;2022-12-07T06:51:49;8.02;;;5.20;;
26946;SDS011;14501;52.282;10.560;2022-12-07T06:54:14;9.70;;;5.55;;
26946;SDS011;14501;52.282;10.560;2022-12-07T06:56:41;14.15;;;7.90;;
26946;SDS011;14501;52.282;10.560;2022-12-07T06:59:07;19.63;;;9.02;;
26946;SDS011;14501;52.282;10.560;2022-12-07T07:01:33;16.17;;;8.63;;
26946;SDS011;14501;52.282;10.560;2022-12-07T07:03:59;15.13;;;8.68;;
26946;SDS011;14501;52.282;10.560;2022-12-07T07:06:25;18.15;;;9.13;;
26946;SDS011;14501;52.282;10.560;2022-12-07T07:08:50;16.67;;;10.00;;
26946;SDS011;14501;52.282;10.560;2022-12-07T07:11:16;19.83;;;10.45;;
26946;SDS011;14501;52.282;10.560;2022-12-07T07:13:42;19.75;;;9.95;;
26946;SDS011;14501;52.282;10.560;2022-12-07T07:16:07;20.35;;;10.02;;
26946;SDS011;14501;52.282;10.560;2022-12-07T07:18:33;21.77;;;11.25;;
26946;SDS011;14501;52.282;10.560;2022-12-07T07:20:59;22.60;;;12.00;;
26946;SDS011;14501;52.282;10.560;2022-12-07T07:23:25;27.80;;;12.23;;
26946;SDS011;14501;52.282;10.560;2022-12-07T07:25:51;24.73;;;12.27;;
26946;SDS011;14501;52.282;10.560;2022-12-07T07:28:17;23.75;;;12.50;;
26946;SDS011;14501;52.282;10.560;2022-12-07T07:30:43;27.75;;;12.10;;
26946;SDS011;14501;52.282;10.560;2022-12-07T07:33:09;23.15;;;12.23;;
26946;SDS011;14501;52.282;10.560;2022-12-07T07:35:35;24.27;;;13.27;;
26946;SDS011;14501;52.282;10.560;2022-12-07T07:38:02;25.13;;;11.88;;
26946;SDS011;14501;52.282;10.560;2022-12-07T07:40:28;28.30;;;12.60;;
26946;SDS011;14501;52.282;10.560;2022-12-07T07:42:55;27.00;;;12.25;;
26946;SDS011;14501;52.282;10.560;2022-12-07T07:45:21;25.67;;;13.00;;
26946;SDS011;14501;52.282;10.560;2022-12-07T07:47:49;29.92;;;13.02;;
26946;SDS011;14501;52.282;10.560;2022-12-07T07:50:15;31.65;;;14.48;;
26946;SDS011;14501;52.282;10.560;2022-12-07T07:52:41;34.00;;;14.77;;
26946;SDS011;14501;52.282;10.560;2022-12-07T07:55:07;27.98;;;14.07;;
26946;SDS011;14501;52.282;10.560;2022-12-07T07:57:34;32.03;;;13.82;;
26946;SDS011;14501;52.282;10.560;2022-12-07T08:00:00;24.90;;;13.13;;
26946;SDS011;14501;52.282;10.560;2022-12-07T08:02:29;28.58;;;13.38;;
26946;SDS011;14501;52.282;10.560;2022-12-07T08:04:54;23.92;;;13.43;;
26946;SDS011;14501;52.282;10.560;2022-12-07T08:07:20;25.02;;;13.27;;
26946;SDS011;14501;52.282;10.560;2022-12-07T08:09:46;25.55;;;12.88;;
26946;SDS011;14501;52.282;10.560;2022-12-07T08:12:12;28.73;;;13.60;;
26946;SDS011;14501;52.282;10.560;2022-12-07T08:14:37;29.75;;;12.23;;
26946;SDS011;14501;52.282;10.560;2022-12-07T08:17:03;34.63;;;13.75;;
26946;SDS011;14501;52.282;10.560;2022-12-07T08:19:29;19.98;;;11.85;;
26946;SDS011;14501;52.282;10.560;2022-12-07T08:21:55;25.02;;;11.48;;
26946;SDS011;14501;52.282;10.560;2022-12-07T08:24:21;22.90;;;9.85;;
26946;SDS011;14501;52.282;10.560;2022-12-07T08:26:47;26.02;;;10.55;;
26946;SDS011;14501;52.282;10.560;2022-12-07T08:29:14;22.70;;;9.50;;
26946;SDS011;14501;52.282;10.560;2022-12-07T08:31:40;20.98;;;10.43;;
26946;SDS011;14501;52.282;10.560;2022-12-07T08:34:06;18.65;;;8.95;;
26946;SDS011;14501;52.282;10.560;2022-12-07T08:36:32;15.75;;;8.65;;
26946;SDS011;14501;52.282;10.560;2022-12-07T08:38:57;16.08;;;8.32;;
26946;SDS011;14501;52.282;10.560;2022-12-07T08:41:23;19.83;;;8.23;;
26946;SDS011;14501;52.282;10.560;2022-12-07T08:43:48;20.75;;;7.75;;
26946;SDS011;14501;52.282;10.560;2022-12-07T08:46:20;12.18;;;8.13;;
26946;SDS011;14501;52.282;10.560;2022-12-07T08:48:55;17.63;;;8.02;;
26946;SDS011;14501;52.282;10.560;2022-12-07T08:51:24;18.98;;;9.43;;
26946;SDS011;14501;52.282;10.560;2022-12-07T08:53:50;18.30;;;9.25;;
26946;SDS011;14501;52.282;10.560;2022-12-07T08:56:18;17.90;;;9.82;;
26946;SDS011;14501;52.282;10.560;2022-12-07T08:58:44;24.48;;;10.10;;
26946;SDS011;14501;52.282;10.560;2022-12-07T09:01:10;20.50;;;10.45;;
26946;SDS011;14501;52.282;10.560;2022-12-07T09:03:35;18.73;;;9.38;;
26946;SDS011;14501;52.282;10.560;2022-12-07T09:06:01;17.10;;;9.32;;
26946;SDS011;14501;52.282;10.560;2022-12-07T09:08:29;17.88;;;9.50;;
26946;SDS011;14501;52.282;10.560;2022-12-07T09:10:59;15.25;;;9.38;;
26946;SDS011;14501;52.282;10.560;2022-12-07T09:13:25;18.02;;;9.57;;
26946;SDS011;14501;52.282;10.560;2022-12-07T09:15:51;15.07;;;8.45;;
26946;SDS011;14501;52.282;10.560;2022-12-07T09:18:16;14.90;;;7.72;;
26946;SDS011;14501;52.282;10.560;2022-12-07T09:20:42;19.05;;;9.40;;
26946;SDS011;14501;52.282;10.560;2022-12-07T09:23:08;18.55;;;9.20;;
26946;SDS011;14501;52.282;10.560;2022-12-07T09:25:34;17.50;;;9.13;;
26946;SDS011;14501;52.282;10.560;2022-12-07T09:28:00;14.88;;;9.13;;
26946;SDS011;14501;52.282;10.560;2022-12-07T09:30:26;19.70;;;10.15;;
26946;SDS011;14501;52.282;10.560;2022-12-07T09:32:53;19.13;;;10.25;;
26946;SDS011;14501;52.282;10.560;2022-12-07T09:35:19;18.05;;;10.60;;
26946;SDS011;14501;52.282;10.560;2022-12-07T09:37:46;17.85;;;10.60;;
26946;SDS011;14501;52.282;10.560;2022-12-07T09:40:11;15.32;;;9.88;;
26946;SDS011;14501;52.282;10.560;2022-12-07T09:42:39;17.08;;;9.93;;
26946;SDS011;14501;52.282;10.560;2022-12-07T09:45:19;17.77;;;10.25;;
26946;SDS011;14501;52.282;10.560;2022-12-07T09:47:59;17.30;;;10.55;;
26946;SDS011;14501;52.282;10.560;2022-12-07T09:50:25;15.65;;;10.25;;
26946;SDS011;14501;52.282;10.560;2022-12-07T09:52:53;22.33;;;11.25;;
26946;SDS011;14501;52.282;10.560;2022-12-07T09:55:29;16.08;;;10.27;;
26946;SDS011;14501;52.282;10.560;2022-12-07T09:57:55;18.35;;;10.00;;
26946;SDS011;14501;52.282;10.560;2022-12-07T10:00:23;15.27;;;8.77;;
26946;SDS011;14501;52.282;10.560;2022-12-07T10:03:00;15.35;;;8.50;;
26946;SDS011;14501;52.282;10.560;2022-12-07T10:07:57;12.43;;;7.35;;
26946;SDS011;14501;52.282;10.560;2022-12-07T10:10:29;11.55;;;6.90;;
26946;SDS011;14501;52.282;10.560;2022-12-07T10:13:04;14.20;;;7.90;;
26946;SDS011;14501;52.282;10.560;2022-12-07T10:18:19;13.25;;;7.57;;
26946;SDS011;14501;52.282;10.560;2022-12-07T10:20:46;13.90;;;7.00;;
26946;SDS011;14501;52.282;10.560;2022-12-07T10:23:17;11.82;;;7.68;;
26946;SDS011;14501;52.282;10.560;2022-12-07T10:25:43;12.98;;;8.10;;
26946;SDS011;14501;52.282;10.560;2022-12-07T10:28:17;21.00;;;10.20;;
26946;SDS011;14501;52.282;10.560;2022-12-07T10:33:27;18.50;;;9.35;;
26946;SDS011;14501;52.282;10.560;2022-12-07T10:35:55;17.45;;;10.05;;
26946;SDS011;14501;52.282;10.560;2022-12-07T10:38:21;19.67;;;10.32;;
26946;SDS011;14501;52.282;10.560;2022-12-07T10:40:49;18.90;;;10.52;;
26946;SDS011;14501;52.282;10.560;2022-12-07T10:43:29;18.00;;;8.68;;
26946;SDS011;14501;52.282;10.560;2022-12-07T10:54:16;13.68;;;7.75;;
26946;SDS011;14501;52.282;10.560;2022-12-07T10:57:01;14.68;;;7.72;;
26946;SDS011;14501;52.282;10.560;2022-12-07T11:05:39;19.88;;;8.13;;
26946;SDS011;14501;52.282;10.560;2022-12-07T11:12:24;13.77;;;8.43;;
26946;SDS011;14501;52.282;10.560;2022-12-07T11:14:39;11.77;;;8.40;;
26946;SDS011;14501;52.282;10.560;2022-12-07T11:17:14;12.80;;;7.68;;
26946;SDS011;14501;52.282;10.560;2022-12-07T11:25:17;11.53;;;7.17;;
26946;SDS011;14501;52.282;10.560;2022-12-07T11:30:38;11.82;;;6.50;;
26946;SDS011;14501;52.282;10.560;2022-12-07T11:33:17;12.93;;;7.05;;
26946;SDS011;14501;52.282;10.560;2022-12-07T11:38:53;13.15;;;6.15;;
26946;SDS011;14501;52.282;10.560;2022-12-07T11:41:23;7.90;;;5.80;;
26946;SDS011;14501;52.282;10.560;2022-12-07T11:43:55;8.77;;;5.53;;
26946;SDS011;14501;52.282;10.560;2022-12-07T11:46:31;6.80;;;4.95;;
26946;SDS011;14501;52.282;10.560;2022-12-07T11:49:14;8.05;;;4.95;;
26946;SDS011;14501;52.282;10.560;2022-12-07T11:51:51;7.65;;;3.88;;
26946;SDS011;14501;52.282;10.560;2022-12-07T11:54:25;7.65;;;3.45;;
26946;SDS011;14501;52.282;10.560;2022-12-07T11:56:56;10.43;;;4.38;;
26946;SDS011;14501;52.282;10.560;2022-12-07T11:59:33;6.13;;;3.70;;
26946;SDS011;14501;52.282;10.560;2022-12-07T12:02:18;11.35;;;3.53;;
26946;SDS011;14501;52.282;10.560;2022-12-07T12:05:34;4.82;;;3.67;;
26946;SDS011;14501;52.282;10.560;2022-12-07T12:07:46;9.68;;;3.92;;
26946;SDS011;14501;52.282;10.560;2022-12-07T12:10:51;7.00;;;3.58;;
26946;SDS011;14501;52.282;10.560;2022-12-07T12:22:32;7.03;;;3.50;;
26946;SDS011;14501;52.282;10.560;2022-12-07T12:24:52;9.88;;;3.75;;
26946;SDS011;14501;52.282;10.560;2022-12-07T12:27:26;6.78;;;3.70;;
26946;SDS011;14501;52.282;10.560;2022-12-07T12:29:57;7.85;;;4.00;;
26946;SDS011;14501;52.282;10.560;2022-12-07T12:32:43;8.38;;;3.83;;
26946;SDS011;14501;52.282;10.560;2022-12-07T12:41:50;13.38;;;5.00;;
26946;SDS011;14501;52.282;10.560;2022-12-07T12:46:49;3.88;;;2.90;;
26946;SDS011;14501;52.282;10.560;2022-12-07T12:54:27;5.63;;;2.60;;
26946;SDS011;14501;52.282;10.560;2022-12-07T12:59:42;6.68;;;2.65;;
26946;SDS011;14501;52.282;10.560;2022-12-07T13:15:38;3.00;;;2.70;;
26946;SDS011;14501;52.282;10.560;2022-12-07T13:29:06;3.55;;;2.47;;
26946;SDS011;14501;52.282;10.560;2022-12-07T13:31:39;3.28;;;2.08;;
26946;SDS011;14501;52.282;10.560;2022-12-07T13:36:58;12.43;;;3.33;;
26946;SDS011;14501;52.282;10.560;2022-12-07T13:39:27;8.07;;;2.63;;
26946;SDS011;14501;52.282;10.560;2022-12-07T13:44:25;5.40;;;3.17;;
26946;SDS011;14501;52.282;10.560;2022-12-07T13:47:06;12.00;;;3.80;;
26946;SDS011;14501;52.282;10.560;2022-12-07T13:49:45;9.80;;;5.10;;
26946;SDS011;14501;52.282;10.560;2022-12-07T13:52:15;8.20;;;5.07;;
26946;SDS011;14501;52.282;10.560;2022-12-07T13:54:46;5.68;;;4.43;;
26946;SDS011;14501;52.282;10.560;2022-12-07T13:57:15;6.30;;;4.13;;
26946;SDS011;14501;52.282;10.560;2022-12-07T13:59:41;6.53;;;3.42;;
26946;SDS011;14501;52.282;10.560;2022-12-07T14:02:20;5.75;;;2.25;;
26946;SDS011;14501;52.282;10.560;2022-12-07T14:04:50;10.18;;;3.08;;
26946;SDS011;14501;52.282;10.560;2022-12-07T14:07:26;8.02;;;2.30;;
26946;SDS011;14501;52.282;10.560;2022-12-07T14:09:54;4.75;;;2.42;;
26946;SDS011;14501;52.282;10.560;2022-12-07T14:12:21;6.38;;;2.00;;
26946;SDS011;14501;52.282;10.560;2022-12-07T14:14:47;7.40;;;2.13;;
26946;SDS011;14501;52.282;10.560;2022-12-07T14:17:17;6.03;;;2.08;;
26946;SDS011;14501;52.282;10.560;2022-12-07T14:19:55;4.50;;;2.20;;
26946;SDS011;14501;52.282;10.560;2022-12-07T14:27:39;4.22;;;2.00;;
26946;SDS011;14501;52.282;10.560;2022-12-07T14:30:15;10.50;;;2.63;;
26946;SDS011;14501;52.282;10.560;2022-12-07T14:32:42;6.30;;;2.08;;
26946;SDS011;14501;52.282;10.560;2022-12-07T14:35:13;4.05;;;2.35;;
26946;SDS011;14501;52.282;10.560;2022-12-07T14:37:41;7.00;;;2.60;;
26946;SDS011;14501;52.282;10.560;2022-12-07T14:40:12;7.97;;;2.88;;
26946;SDS011;14501;52.282;10.560;2022-12-07T14:42:39;9.65;;;2.58;;
26946;SDS011;14501;52.282;10.560;2022-12-07T14:45:05;6.03;;;2.75;;
26946;SDS011;14501;52.282;10.560;2022-12-07T14:47:31;11.60;;;3.10;;
26946;SDS011;14501;52.282;10.560;2022-12-07T14:49:57;6.53;;;2.92;;
26946;SDS011;14501;52.282;10.560;2022-12-07T14:52:23;12.77;;;3.33;;
26946;SDS011;14501;52.282;10.560;2022-12-07T14:54:52;9.57;;;3.35;;
26946;SDS011;14501;52.282;10.560;2022-12-07T14:57:18;13.20;;;3.58;;
26946;SDS011;14501;52.282;10.560;2022-12-07T14:59:44;6.70;;;2.85;;
26946;SDS011;14501;52.282;10.560;2022-12-07T15:02:13;4.63;;;3.08;;
26946;SDS011;14501;52.282;10.560;2022-12-07T15:04:40;9.57;;;3.65;;
26946;SDS011;14501;52.282;10.560;2022-12-07T15:07:09;15.90;;;4.13;;
26946;SDS011;14501;52.282;10.560;2022-12-07T15:09:39;12.20;;;2.83;;
26946;SDS011;14501;52.282;10.560;2022-12-07T15:12:05;12.20;;;2.55;;
26946;SDS011;14501;52.282;10.560;2022-12-07T15:14:31;10.77;;;3.00;;
26946;SDS011;14501;52.282;10.560;2022-12-07T15:16:56;7.95;;;2.60;;
26946;SDS011;14501;52.282;10.560;2022-12-07T15:19:22;8.82;;;2.60;;
26946;SDS011;14501;52.282;10.560;2022-12-07T15:21:51;6.53;;;2.15;;
26946;SDS011;14501;52.282;10.560;2022-12-07T15:24:17;9.27;;;2.53;;
26946;SDS011;14501;52.282;10.560;2022-12-07T15:26:42;12.20;;;2.80;;
26946;SDS011;14501;52.282;10.560;2022-12-07T15:29:08;7.32;;;2.25;;
26946;SDS011;14501;52.282;10.560;2022-12-07T15:31:35;7.65;;;2.22;;
26946;SDS011;14501;52.282;10.560;2022-12-07T15:34:00;9.50;;;2.20;;
26946;SDS011;14501;52.282;10.560;2022-12-07T15:36:28;7.43;;;2.30;;
26946;SDS011;14501;52.282;10.560;2022-12-07T15:38:55;6.13;;;2.17;;
26946;SDS011;14501;52.282;10.560;2022-12-07T15:41:21;7.03;;;2.40;;
26946;SDS011;14501;52.282;10.560;2022-12-07T15:43:47;8.05;;;2.75;;
26946;SDS011;14501;52.282;10.560;2022-12-07T15:46:38;7.80;;;2.60;;
26946;SDS011;14501;52.282;10.560;2022-12-07T15:49:07;10.13;;;2.53;;
26946;SDS011;14501;52.282;10.560;2022-12-07T15:51:36;10.98;;;2.53;;
26946;SDS011;14501;52.282;10.560;2022-12-07T15:54:02;5.43;;;2.40;;
26946;SDS011;14501;52.282;10.560;2022-12-07T15:56:27;6.80;;;2.38;;
26946;SDS011;14501;52.282;10.560;2022-12-07T15:58:53;5.18;;;2.17;;
26946;SDS011;14501;52.282;10.560;2022-12-07T16:01:18;9.57;;;2.17;;
26946;SDS011;14501;52.282;10.560;2022-12-07T16:03:44;5.68;;;1.88;;
26946;SDS011;14501;52.282;10.560;2022-12-07T16:06:11;4.30;;;2.15;;
26946;SDS011;14501;52.282;10.560;2022-12-07T16:08:37;6.35;;;2.30;;
26946;SDS011;14501;52.282;10.560;2022-12-07T16:11:07;5.55;;;2.53;;
26946;SDS011;14501;52.282;10.560;2022-12-07T16:13:33;7.88;;;2.30;;
26946;SDS011;14501;52.282;10.560;2022-12-07T16:16:06;9.45;;;2.22;;
26946;SDS011;14501;52.282;10.560;2022-12-07T16:18:35;4.20;;;2.20;;
26946;SDS011;14501;52.282;10.560;2022-12-07T16:21:01;9.27;;;2.13;;
26946;SDS011;14501;52.282;10.560;2022-12-07T16:23:27;8.18;;;2.15;;
26946;SDS011;14501;52.282;10.560;2022-12-07T16:25:53;5.72;;;1.60;;
26946;SDS011;14501;52.282;10.560;2022-12-07T16:28:18;3.85;;;1.20;;
26946;SDS011;14501;52.282;10.560;2022-12-07T16:30:44;5.38;;;1.33;;
26946;SDS011;14501;52.282;10.560;2022-12-07T16:33:10;3.13;;;0.95;;
26946;SDS011;14501;52.282;10.560;2022-12-07T16:35:38;2.83;;;0.95;;
26946;SDS011;14501;52.282;10.560;2022-12-07T16:38:05;5.07;;;1.23;;
26946;SDS011;14501;52.282;10.560;2022-12-07T16:40:31;6.95;;;1.33;;
26946;SDS011;14501;52.282;10.560;2022-12-07T16:42:57;2.90;;;1.27;;
26946;SDS011;14501;52.282;10.560;2022-12-07T16:45:23;5.35;;;1.42;;
26946;SDS011;14501;52.282;10.560;2022-12-07T16:47:48;6.18;;;2.90;;
26946;SDS011;14501;52.282;10.560;2022-12-07T16:50:14;5.30;;;1.70;;